sensor_id;sensor_type;location;lat;lon;timestamp;temperature;humidity
790;DHT22;378;48.844;9.156;2023-06-22T00:02:17;20.90;99.90
790;DHT22;378;48.844;9.156;2023-06-22T00:04:44;21.00;99.90
790;DHT22;378;48.844;9.156;2023-06-22T00:07:11;21.00;99.90
790;DHT22;378;48.844;9.156;2023-06-22T00:09:38;21.00;99.90
790;DHT22;378;48.844;9.156;2023-06-22T00:12:06;21.00;99.90
790;DHT22;378;48.844;9.156;2023-06-22T00:14:34;21.00;99.90
790;DHT22;378;48.844;9.156;2023-06-22T00:17:01;21.00;99.90
790;DHT22;378;48.844;9.156;2023-06-22T00:19:28;20.90;99.90
790;DHT22;378;48.844;9.156;2023-06-22T00:21:55;20.90;99.90
790;DHT22;378;48.844;9.156;2023-06-22T00:24:25;20.90;99.90
790;DHT22;378;48.844;9.156;2023-06-22T00:26:52;20.90;99.90
790;DHT22;378;48.844;9.156;2023-06-22T00:29:19;20.90;99.90
790;DHT22;378;48.844;9.156;2023-06-22T00:31:47;20.90;99.90
790;DHT22;378;48.844;9.156;2023-06-22T00:34:14;20.90;99.90
790;DHT22;378;48.844;9.156;2023-06-22T00:36:41;20.90;99.90
790;DHT22;378;48.844;9.156;2023-06-22T00:39:08;20.80;99.90
790;DHT22;378;48.844;9.156;2023-06-22T00:41:35;20.80;99.90
790;DHT22;378;48.844;9.156;2023-06-22T00:44:02;20.70;99.90
790;DHT22;378;48.844;9.156;2023-06-22T00:46:29;20.70;99.90
790;DHT22;378;48.844;9.156;2023-06-22T00:48:57;20.70;99.90
790;DHT22;378;48.844;9.156;2023-06-22T00:51:24;20.70;99.90
790;DHT22;378;48.844;9.156;2023-06-22T00:53:52;20.70;99.90
790;DHT22;378;48.844;9.156;2023-06-22T00:56:19;20.70;99.90
790;DHT22;378;48.844;9.156;2023-06-22T00:58:50;20.70;99.90
790;DHT22;378;48.844;9.156;2023-06-22T01:01:18;20.70;99.90
790;DHT22;378;48.844;9.156;2023-06-22T01:03:49;20.70;99.90
790;DHT22;378;48.844;9.156;2023-06-22T01:06:21;20.70;99.90
790;DHT22;378;48.844;9.156;2023-06-22T01:09:00;20.70;99.90
790;DHT22;378;48.844;9.156;2023-06-22T01:11:35;20.70;99.90
790;DHT22;378;48.844;9.156;2023-06-22T01:14:08;20.70;99.90
790;DHT22;378;48.844;9.156;2023-06-22T01:16:41;20.60;99.90
790;DHT22;378;48.844;9.156;2023-06-22T01:19:20;20.50;99.90
790;DHT22;378;48.844;9.156;2023-06-22T01:21:53;20.50;99.90
790;DHT22;378;48.844;9.156;2023-06-22T01:24:24;20.40;99.90
790;DHT22;378;48.844;9.156;2023-06-22T01:27:00;20.30;99.90
790;DHT22;378;48.844;9.156;2023-06-22T01:29:33;20.20;99.90
790;DHT22;378;48.844;9.156;2023-06-22T01:32:03;20.10;99.90
790;DHT22;378;48.844;9.156;2023-06-22T01:34:32;20.00;99.90
790;DHT22;378;48.844;9.156;2023-06-22T01:37:00;19.90;99.90
790;DHT22;378;48.844;9.156;2023-06-22T01:39:27;19.90;99.90
790;DHT22;378;48.844;9.156;2023-06-22T01:41:55;19.80;99.90
790;DHT22;378;48.844;9.156;2023-06-22T01:44:24;19.80;99.90
790;DHT22;378;48.844;9.156;2023-06-22T01:46:53;19.80;99.90
790;DHT22;378;48.844;9.156;2023-06-22T01:49:20;19.80;99.90
790;DHT22;378;48.844;9.156;2023-06-22T01:51:47;19.80;99.90
790;DHT22;378;48.844;9.156;2023-06-22T01:54:14;19.80;99.90
790;DHT22;378;48.844;9.156;2023-06-22T01:56:41;19.80;99.90
790;DHT22;378;48.844;9.156;2023-06-22T01:59:12;19.70;99.90
790;DHT22;378;48.844;9.156;2023-06-22T02:01:43;19.70;99.90
790;DHT22;378;48.844;9.156;2023-06-22T02:04:19;19.70;99.90
790;DHT22;378;48.844;9.156;2023-06-22T02:06:52;19.60;99.90
790;DHT22;378;48.844;9.156;2023-06-22T02:09:22;19.60;99.90
790;DHT22;378;48.844;9.156;2023-06-22T02:11:50;19.60;99.90
790;DHT22;378;48.844;9.156;2023-06-22T02:14:21;19.60;99.90
790;DHT22;378;48.844;9.156;2023-06-22T02:16:48;19.60;99.90
790;DHT22;378;48.844;9.156;2023-06-22T02:19:17;19.50;99.90
790;DHT22;378;48.844;9.156;2023-06-22T02:21:49;19.50;99.90
790;DHT22;378;48.844;9.156;2023-06-22T02:24:16;19.40;99.90
790;DHT22;378;48.844;9.156;2023-06-22T02:26:43;19.40;99.90
790;DHT22;378;48.844;9.156;2023-06-22T02:29:11;19.40;99.90
790;DHT22;378;48.844;9.156;2023-06-22T02:31:37;19.40;99.90
790;DHT22;378;48.844;9.156;2023-06-22T02:34:04;19.40;99.90
790;DHT22;378;48.844;9.156;2023-06-22T02:36:33;19.40;99.90
790;DHT22;378;48.844;9.156;2023-06-22T02:39:00;19.40;99.90
790;DHT22;378;48.844;9.156;2023-06-22T02:41:28;19.30;99.90
790;DHT22;378;48.844;9.156;2023-06-22T02:43:55;19.30;99.90
790;DHT22;378;48.844;9.156;2023-06-22T02:46:22;19.30;99.90
790;DHT22;378;48.844;9.156;2023-06-22T02:48:49;19.30;99.90
790;DHT22;378;48.844;9.156;2023-06-22T02:51:16;19.20;99.90
790;DHT22;378;48.844;9.156;2023-06-22T02:53:45;19.30;99.90
790;DHT22;378;48.844;9.156;2023-06-22T02:56:12;19.20;99.90
790;DHT22;378;48.844;9.156;2023-06-22T02:58:39;19.20;99.90
790;DHT22;378;48.844;9.156;2023-06-22T03:01:06;19.10;99.90
790;DHT22;378;48.844;9.156;2023-06-22T03:03:33;19.10;99.90
790;DHT22;378;48.844;9.156;2023-06-22T03:06:00;19.00;99.90
790;DHT22;378;48.844;9.156;2023-06-22T03:08:27;19.00;99.90
790;DHT22;378;48.844;9.156;2023-06-22T03:10:57;19.00;99.90
790;DHT22;378;48.844;9.156;2023-06-22T03:13:24;19.00;99.90
790;DHT22;378;48.844;9.156;2023-06-22T03:15:51;18.90;99.90
790;DHT22;378;48.844;9.156;2023-06-22T03:18:18;18.90;99.90
790;DHT22;378;48.844;9.156;2023-06-22T03:20:45;18.90;99.90
790;DHT22;378;48.844;9.156;2023-06-22T03:23:11;18.90;99.90
790;DHT22;378;48.844;9.156;2023-06-22T03:25:38;18.90;99.90
790;DHT22;378;48.844;9.156;2023-06-22T03:28:07;18.90;99.90
790;DHT22;378;48.844;9.156;2023-06-22T03:30:33;19.00;99.90
790;DHT22;378;48.844;9.156;2023-06-22T03:33:00;19.00;99.90
790;DHT22;378;48.844;9.156;2023-06-22T03:35:27;19.00;99.90
790;DHT22;378;48.844;9.156;2023-06-22T03:37:54;19.10;99.90
790;DHT22;378;48.844;9.156;2023-06-22T03:40:21;19.10;99.90
790;DHT22;378;48.844;9.156;2023-06-22T03:42:48;19.10;99.90
790;DHT22;378;48.844;9.156;2023-06-22T03:45:16;19.20;99.90
790;DHT22;378;48.844;9.156;2023-06-22T03:47:43;19.30;99.90
790;DHT22;378;48.844;9.156;2023-06-22T03:50:10;19.40;99.90
790;DHT22;378;48.844;9.156;2023-06-22T03:52:37;19.40;99.90
790;DHT22;378;48.844;9.156;2023-06-22T03:55:04;19.40;99.90
790;DHT22;378;48.844;9.156;2023-06-22T03:57:31;19.40;99.90
790;DHT22;378;48.844;9.156;2023-06-22T03:59:59;19.40;99.90
790;DHT22;378;48.844;9.156;2023-06-22T04:02:28;19.40;99.90
790;DHT22;378;48.844;9.156;2023-06-22T04:04:54;19.40;99.90
790;DHT22;378;48.844;9.156;2023-06-22T04:07:21;19.50;99.90
790;DHT22;378;48.844;9.156;2023-06-22T04:09:48;19.60;99.90
790;DHT22;378;48.844;9.156;2023-06-22T04:12:15;19.60;99.90
790;DHT22;378;48.844;9.156;2023-06-22T04:14:42;19.70;99.90
790;DHT22;378;48.844;9.156;2023-06-22T04:17:08;19.70;99.90
790;DHT22;378;48.844;9.156;2023-06-22T04:19:37;19.80;99.90
790;DHT22;378;48.844;9.156;2023-06-22T04:22:04;19.80;99.90
790;DHT22;378;48.844;9.156;2023-06-22T04:24:32;19.80;99.90
790;DHT22;378;48.844;9.156;2023-06-22T04:26:59;19.90;99.90
790;DHT22;378;48.844;9.156;2023-06-22T04:29:28;19.90;99.90
790;DHT22;378;48.844;9.156;2023-06-22T04:31:55;20.00;99.90
790;DHT22;378;48.844;9.156;2023-06-22T04:34:23;20.10;99.90
790;DHT22;378;48.844;9.156;2023-06-22T04:36:53;20.20;99.90
790;DHT22;378;48.844;9.156;2023-06-22T04:39:20;20.30;99.90
790;DHT22;378;48.844;9.156;2023-06-22T04:41:47;20.40;99.90
790;DHT22;378;48.844;9.156;2023-06-22T04:44:15;20.30;99.90
790;DHT22;378;48.844;9.156;2023-06-22T04:46:49;20.30;99.90
790;DHT22;378;48.844;9.156;2023-06-22T04:49:20;20.40;99.90
790;DHT22;378;48.844;9.156;2023-06-22T04:51:48;20.30;99.90
790;DHT22;378;48.844;9.156;2023-06-22T04:54:18;20.60;99.90
790;DHT22;378;48.844;9.156;2023-06-22T04:56:45;21.00;99.90
790;DHT22;378;48.844;9.156;2023-06-22T04:59:12;21.50;99.90
790;DHT22;378;48.844;9.156;2023-06-22T05:01:39;22.00;99.90
790;DHT22;378;48.844;9.156;2023-06-22T05:04:06;22.30;99.90
790;DHT22;378;48.844;9.156;2023-06-22T05:06:33;22.60;99.90
790;DHT22;378;48.844;9.156;2023-06-22T05:09:00;22.90;99.90
790;DHT22;378;48.844;9.156;2023-06-22T05:11:28;23.30;99.90
790;DHT22;378;48.844;9.156;2023-06-22T05:13:55;23.60;99.90
790;DHT22;378;48.844;9.156;2023-06-22T05:16:22;23.80;99.90
790;DHT22;378;48.844;9.156;2023-06-22T05:18:52;23.60;99.90
790;DHT22;378;48.844;9.156;2023-06-22T05:21:22;23.60;99.90
790;DHT22;378;48.844;9.156;2023-06-22T05:23:49;23.40;99.90
790;DHT22;378;48.844;9.156;2023-06-22T05:26:16;23.30;99.90
790;DHT22;378;48.844;9.156;2023-06-22T05:28:44;23.40;99.90
790;DHT22;378;48.844;9.156;2023-06-22T05:31:12;23.70;99.90
790;DHT22;378;48.844;9.156;2023-06-22T05:33:40;23.90;99.90
790;DHT22;378;48.844;9.156;2023-06-22T05:36:07;24.00;99.90
790;DHT22;378;48.844;9.156;2023-06-22T05:38:34;24.10;99.90
790;DHT22;378;48.844;9.156;2023-06-22T05:41:01;24.00;99.90
790;DHT22;378;48.844;9.156;2023-06-22T05:43:28;24.10;99.90
790;DHT22;378;48.844;9.156;2023-06-22T05:45:56;24.20;99.90
790;DHT22;378;48.844;9.156;2023-06-22T05:48:23;24.30;99.90
790;DHT22;378;48.844;9.156;2023-06-22T05:50:50;24.40;99.90
790;DHT22;378;48.844;9.156;2023-06-22T05:53:17;24.30;99.90
790;DHT22;378;48.844;9.156;2023-06-22T05:55:44;24.50;99.90
790;DHT22;378;48.844;9.156;2023-06-22T05:58:11;24.60;99.90
790;DHT22;378;48.844;9.156;2023-06-22T06:00:38;24.20;99.90
790;DHT22;378;48.844;9.156;2023-06-22T06:03:07;23.80;99.90
790;DHT22;378;48.844;9.156;2023-06-22T06:05:34;23.50;99.90
790;DHT22;378;48.844;9.156;2023-06-22T06:08:02;23.20;99.90
790;DHT22;378;48.844;9.156;2023-06-22T06:10:30;23.20;99.90
790;DHT22;378;48.844;9.156;2023-06-22T06:12:57;23.20;99.90
790;DHT22;378;48.844;9.156;2023-06-22T06:15:24;23.40;99.90
790;DHT22;378;48.844;9.156;2023-06-22T06:17:52;23.30;99.90
790;DHT22;378;48.844;9.156;2023-06-22T06:20:22;23.40;99.90
790;DHT22;378;48.844;9.156;2023-06-22T06:22:50;23.60;99.90
790;DHT22;378;48.844;9.156;2023-06-22T06:25:17;24.20;99.90
790;DHT22;378;48.844;9.156;2023-06-22T06:27:46;24.80;99.90
790;DHT22;378;48.844;9.156;2023-06-22T06:30:14;25.10;99.90
790;DHT22;378;48.844;9.156;2023-06-22T06:32:41;25.30;99.90
790;DHT22;378;48.844;9.156;2023-06-22T06:35:11;25.40;99.90
790;DHT22;378;48.844;9.156;2023-06-22T06:37:41;25.30;99.90
790;DHT22;378;48.844;9.156;2023-06-22T06:40:10;25.10;99.90
790;DHT22;378;48.844;9.156;2023-06-22T06:42:37;25.60;99.90
790;DHT22;378;48.844;9.156;2023-06-22T06:45:06;25.90;99.90
790;DHT22;378;48.844;9.156;2023-06-22T06:47:33;25.90;99.90
790;DHT22;378;48.844;9.156;2023-06-22T06:50:00;26.30;99.90
790;DHT22;378;48.844;9.156;2023-06-22T06:52:27;26.50;99.90
790;DHT22;378;48.844;9.156;2023-06-22T06:54:55;26.40;99.90
790;DHT22;378;48.844;9.156;2023-06-22T06:57:22;26.70;99.90
790;DHT22;378;48.844;9.156;2023-06-22T06:59:49;27.10;99.90
790;DHT22;378;48.844;9.156;2023-06-22T07:02:16;27.20;99.90
790;DHT22;378;48.844;9.156;2023-06-22T07:04:43;27.60;99.90
790;DHT22;378;48.844;9.156;2023-06-22T07:07:10;27.50;99.90
790;DHT22;378;48.844;9.156;2023-06-22T07:09:37;27.60;99.90
790;DHT22;378;48.844;9.156;2023-06-22T07:12:06;27.60;99.90
790;DHT22;378;48.844;9.156;2023-06-22T07:14:33;27.60;99.90
790;DHT22;378;48.844;9.156;2023-06-22T07:17:00;27.20;99.90
790;DHT22;378;48.844;9.156;2023-06-22T07:19:27;27.40;99.90
790;DHT22;378;48.844;9.156;2023-06-22T07:21:54;27.60;99.90
790;DHT22;378;48.844;9.156;2023-06-22T07:24:21;27.80;99.90
790;DHT22;378;48.844;9.156;2023-06-22T07:26:48;27.90;99.90
790;DHT22;378;48.844;9.156;2023-06-22T07:29:17;28.30;99.90
790;DHT22;378;48.844;9.156;2023-06-22T07:31:45;28.50;99.90
790;DHT22;378;48.844;9.156;2023-06-22T07:34:12;28.70;99.90
790;DHT22;378;48.844;9.156;2023-06-22T07:36:39;28.70;99.90
790;DHT22;378;48.844;9.156;2023-06-22T07:39:06;29.30;99.90
790;DHT22;378;48.844;9.156;2023-06-22T07:41:32;29.60;99.90
790;DHT22;378;48.844;9.156;2023-06-22T07:43:59;29.70;99.90
790;DHT22;378;48.844;9.156;2023-06-22T07:46:27;29.70;99.90
790;DHT22;378;48.844;9.156;2023-06-22T07:48:55;29.80;99.90
790;DHT22;378;48.844;9.156;2023-06-22T07:51:22;30.00;99.90
790;DHT22;378;48.844;9.156;2023-06-22T07:53:49;29.80;99.90
790;DHT22;378;48.844;9.156;2023-06-22T07:56:16;30.00;99.90
790;DHT22;378;48.844;9.156;2023-06-22T07:58:46;30.20;99.90
790;DHT22;378;48.844;9.156;2023-06-22T08:01:13;30.60;99.90
790;DHT22;378;48.844;9.156;2023-06-22T08:03:41;30.40;99.90
790;DHT22;378;48.844;9.156;2023-06-22T08:06:09;30.40;99.90
790;DHT22;378;48.844;9.156;2023-06-22T08:08:36;30.60;99.90
790;DHT22;378;48.844;9.156;2023-06-22T08:11:03;31.10;99.90
790;DHT22;378;48.844;9.156;2023-06-22T08:13:30;31.90;99.90
790;DHT22;378;48.844;9.156;2023-06-22T08:15:57;32.60;99.90
790;DHT22;378;48.844;9.156;2023-06-22T08:18:24;32.70;99.90
790;DHT22;378;48.844;9.156;2023-06-22T08:20:52;32.60;99.90
790;DHT22;378;48.844;9.156;2023-06-22T08:23:19;33.00;99.90
790;DHT22;378;48.844;9.156;2023-06-22T08:25:46;33.70;99.90
790;DHT22;378;48.844;9.156;2023-06-22T08:28:13;34.20;99.90
790;DHT22;378;48.844;9.156;2023-06-22T08:30:40;34.10;99.90
790;DHT22;378;48.844;9.156;2023-06-22T08:33:07;34.30;99.90
790;DHT22;378;48.844;9.156;2023-06-22T08:35:34;34.10;99.90
790;DHT22;378;48.844;9.156;2023-06-22T08:38:02;33.30;99.90
790;DHT22;378;48.844;9.156;2023-06-22T08:40:29;32.00;99.90
790;DHT22;378;48.844;9.156;2023-06-22T08:42:56;31.20;99.90
790;DHT22;378;48.844;9.156;2023-06-22T08:45:23;30.70;99.90
790;DHT22;378;48.844;9.156;2023-06-22T08:47:49;30.50;99.90
790;DHT22;378;48.844;9.156;2023-06-22T08:50:16;30.40;99.90
790;DHT22;378;48.844;9.156;2023-06-22T08:52:43;30.40;99.90
790;DHT22;378;48.844;9.156;2023-06-22T08:55:12;30.30;99.90
790;DHT22;378;48.844;9.156;2023-06-22T08:57:40;30.50;99.90
790;DHT22;378;48.844;9.156;2023-06-22T09:00:08;31.00;99.90
790;DHT22;378;48.844;9.156;2023-06-22T09:02:46;32.30;99.90
790;DHT22;378;48.844;9.156;2023-06-22T09:05:13;33.40;99.90
790;DHT22;378;48.844;9.156;2023-06-22T09:07:40;33.10;99.90
790;DHT22;378;48.844;9.156;2023-06-22T09:10:08;33.00;99.90
790;DHT22;378;48.844;9.156;2023-06-22T09:12:36;33.70;99.90
790;DHT22;378;48.844;9.156;2023-06-22T09:15:04;34.30;99.90
790;DHT22;378;48.844;9.156;2023-06-22T09:17:33;34.70;99.90
790;DHT22;378;48.844;9.156;2023-06-22T09:20:00;35.10;99.90
790;DHT22;378;48.844;9.156;2023-06-22T09:22:31;35.10;99.90
790;DHT22;378;48.844;9.156;2023-06-22T09:24:58;33.90;99.90
790;DHT22;378;48.844;9.156;2023-06-22T09:27:26;33.90;99.90
790;DHT22;378;48.844;9.156;2023-06-22T09:29:54;35.10;99.90
790;DHT22;378;48.844;9.156;2023-06-22T09:32:23;35.80;99.90
790;DHT22;378;48.844;9.156;2023-06-22T09:34:50;36.40;99.90
790;DHT22;378;48.844;9.156;2023-06-22T09:37:18;36.80;99.90
790;DHT22;378;48.844;9.156;2023-06-22T09:39:45;37.30;99.90
790;DHT22;378;48.844;9.156;2023-06-22T09:42:12;37.00;99.90
790;DHT22;378;48.844;9.156;2023-06-22T09:44:39;36.80;99.90
790;DHT22;378;48.844;9.156;2023-06-22T09:47:08;36.90;99.90
790;DHT22;378;48.844;9.156;2023-06-22T09:49:35;37.60;99.90
790;DHT22;378;48.844;9.156;2023-06-22T09:52:01;37.40;99.90
790;DHT22;378;48.844;9.156;2023-06-22T09:54:28;38.30;99.90
790;DHT22;378;48.844;9.156;2023-06-22T09:56:55;38.10;99.90
790;DHT22;378;48.844;9.156;2023-06-22T09:59:22;37.50;99.90
790;DHT22;378;48.844;9.156;2023-06-22T10:01:49;37.30;99.90
790;DHT22;378;48.844;9.156;2023-06-22T10:04:17;37.10;99.90
790;DHT22;378;48.844;9.156;2023-06-22T10:06:44;36.70;99.90
790;DHT22;378;48.844;9.156;2023-06-22T10:09:11;36.30;99.90
790;DHT22;378;48.844;9.156;2023-06-22T10:11:37;35.40;99.90
790;DHT22;378;48.844;9.156;2023-06-22T10:14:04;34.80;99.90
790;DHT22;378;48.844;9.156;2023-06-22T10:16:31;34.10;99.90
790;DHT22;378;48.844;9.156;2023-06-22T10:18:58;33.80;99.90
790;DHT22;378;48.844;9.156;2023-06-22T10:21:27;33.30;99.90
790;DHT22;378;48.844;9.156;2023-06-22T10:23:54;33.10;99.90
790;DHT22;378;48.844;9.156;2023-06-22T10:26:20;32.90;99.90
790;DHT22;378;48.844;9.156;2023-06-22T10:28:47;32.90;99.90
790;DHT22;378;48.844;9.156;2023-06-22T10:31:14;32.90;99.90
790;DHT22;378;48.844;9.156;2023-06-22T10:33:42;33.60;99.90
790;DHT22;378;48.844;9.156;2023-06-22T10:36:09;34.20;99.90
790;DHT22;378;48.844;9.156;2023-06-22T10:38:38;34.50;99.90
790;DHT22;378;48.844;9.156;2023-06-22T10:41:04;35.10;99.90
790;DHT22;378;48.844;9.156;2023-06-22T10:43:31;35.80;99.90
790;DHT22;378;48.844;9.156;2023-06-22T10:45:58;36.10;99.90
790;DHT22;378;48.844;9.156;2023-06-22T10:48:25;35.90;99.90
790;DHT22;378;48.844;9.156;2023-06-22T10:50:52;35.40;99.90
790;DHT22;378;48.844;9.156;2023-06-22T10:53:20;35.30;99.90
790;DHT22;378;48.844;9.156;2023-06-22T10:55:48;34.80;99.90
790;DHT22;378;48.844;9.156;2023-06-22T10:58:15;34.60;99.90
790;DHT22;378;48.844;9.156;2023-06-22T11:00:41;34.60;99.90
790;DHT22;378;48.844;9.156;2023-06-22T11:03:08;34.50;99.90
790;DHT22;378;48.844;9.156;2023-06-22T11:05:35;34.00;99.90
790;DHT22;378;48.844;9.156;2023-06-22T11:08:02;33.60;99.90
790;DHT22;378;48.844;9.156;2023-06-22T11:10:29;33.80;99.90
790;DHT22;378;48.844;9.156;2023-06-22T11:12:57;33.90;99.90
790;DHT22;378;48.844;9.156;2023-06-22T11:15:24;34.00;99.90
790;DHT22;378;48.844;9.156;2023-06-22T11:17:51;34.00;99.90
790;DHT22;378;48.844;9.156;2023-06-22T11:20:18;34.10;99.90
790;DHT22;378;48.844;9.156;2023-06-22T11:22:45;34.30;99.90
790;DHT22;378;48.844;9.156;2023-06-22T11:25:12;34.40;99.90
790;DHT22;378;48.844;9.156;2023-06-22T11:27:39;34.20;99.90
790;DHT22;378;48.844;9.156;2023-06-22T11:30:08;34.10;99.90
790;DHT22;378;48.844;9.156;2023-06-22T11:32:35;34.00;99.90
790;DHT22;378;48.844;9.156;2023-06-22T11:35:02;33.60;99.90
790;DHT22;378;48.844;9.156;2023-06-22T11:37:29;33.10;99.90
790;DHT22;378;48.844;9.156;2023-06-22T11:39:56;32.80;99.90
790;DHT22;378;48.844;9.156;2023-06-22T11:42:23;32.60;99.90
790;DHT22;378;48.844;9.156;2023-06-22T11:44:50;32.70;99.90
790;DHT22;378;48.844;9.156;2023-06-22T11:47:19;32.90;99.90
790;DHT22;378;48.844;9.156;2023-06-22T11:49:46;33.00;99.90
790;DHT22;378;48.844;9.156;2023-06-22T11:52:13;33.20;99.90
790;DHT22;378;48.844;9.156;2023-06-22T11:54:40;33.20;99.90
790;DHT22;378;48.844;9.156;2023-06-22T11:57:06;33.10;99.90
790;DHT22;378;48.844;9.156;2023-06-22T11:59:33;33.00;99.90
790;DHT22;378;48.844;9.156;2023-06-22T12:02:00;32.70;99.90
790;DHT22;378;48.844;9.156;2023-06-22T12:04:28;32.60;99.90
790;DHT22;378;48.844;9.156;2023-06-22T12:06:55;32.60;99.90
790;DHT22;378;48.844;9.156;2023-06-22T12:09:24;32.60;99.90
790;DHT22;378;48.844;9.156;2023-06-22T12:11:50;32.50;99.90
790;DHT22;378;48.844;9.156;2023-06-22T12:14:17;32.30;99.90
790;DHT22;378;48.844;9.156;2023-06-22T12:16:44;32.10;99.90
790;DHT22;378;48.844;9.156;2023-06-22T12:19:11;32.20;99.90
790;DHT22;378;48.844;9.156;2023-06-22T12:21:39;32.40;99.90
790;DHT22;378;48.844;9.156;2023-06-22T12:24:07;32.50;99.90
790;DHT22;378;48.844;9.156;2023-06-22T12:26:33;32.50;99.90
790;DHT22;378;48.844;9.156;2023-06-22T12:29:00;32.30;99.90
790;DHT22;378;48.844;9.156;2023-06-22T12:31:27;32.10;99.90
790;DHT22;378;48.844;9.156;2023-06-22T12:33:54;32.10;99.90
790;DHT22;378;48.844;9.156;2023-06-22T12:36:21;32.20;99.90
790;DHT22;378;48.844;9.156;2023-06-22T12:38:49;32.70;99.90
790;DHT22;378;48.844;9.156;2023-06-22T12:41:17;33.20;99.90
790;DHT22;378;48.844;9.156;2023-06-22T12:43:44;33.20;99.90
790;DHT22;378;48.844;9.156;2023-06-22T12:46:11;33.30;99.90
790;DHT22;378;48.844;9.156;2023-06-22T12:48:37;33.00;99.90
790;DHT22;378;48.844;9.156;2023-06-22T12:51:07;32.90;99.90
790;DHT22;378;48.844;9.156;2023-06-22T12:53:34;33.10;99.90
790;DHT22;378;48.844;9.156;2023-06-22T12:56:03;33.10;99.90
790;DHT22;378;48.844;9.156;2023-06-22T12:58:30;33.00;99.90
790;DHT22;378;48.844;9.156;2023-06-22T13:00:57;32.50;99.90
790;DHT22;378;48.844;9.156;2023-06-22T13:03:24;32.30;99.90
790;DHT22;378;48.844;9.156;2023-06-22T13:05:53;32.20;99.90
790;DHT22;378;48.844;9.156;2023-06-22T13:08:20;32.10;99.90
790;DHT22;378;48.844;9.156;2023-06-22T13:10:47;32.00;99.90
790;DHT22;378;48.844;9.156;2023-06-22T13:13:15;32.00;99.90
790;DHT22;378;48.844;9.156;2023-06-22T13:15:42;31.90;99.90
790;DHT22;378;48.844;9.156;2023-06-22T13:18:08;31.80;99.90
790;DHT22;378;48.844;9.156;2023-06-22T13:20:35;31.90;99.90
790;DHT22;378;48.844;9.156;2023-06-22T13:23:02;31.90;99.90
790;DHT22;378;48.844;9.156;2023-06-22T13:25:29;32.00;99.90
790;DHT22;378;48.844;9.156;2023-06-22T13:27:56;32.10;99.90
790;DHT22;378;48.844;9.156;2023-06-22T13:30:24;32.10;99.90
790;DHT22;378;48.844;9.156;2023-06-22T13:32:51;32.20;99.90
790;DHT22;378;48.844;9.156;2023-06-22T13:35:17;32.50;99.90
790;DHT22;378;48.844;9.156;2023-06-22T13:37:44;33.00;99.90
790;DHT22;378;48.844;9.156;2023-06-22T13:40:11;33.30;99.90
790;DHT22;378;48.844;9.156;2023-06-22T13:42:38;33.60;99.90
790;DHT22;378;48.844;9.156;2023-06-22T13:45:06;34.00;99.90
790;DHT22;378;48.844;9.156;2023-06-22T13:47:35;34.00;99.90
790;DHT22;378;48.844;9.156;2023-06-22T13:50:02;34.10;99.90
790;DHT22;378;48.844;9.156;2023-06-22T13:52:29;34.20;99.90
790;DHT22;378;48.844;9.156;2023-06-22T13:54:55;34.30;99.90
790;DHT22;378;48.844;9.156;2023-06-22T13:57:22;34.30;99.90
790;DHT22;378;48.844;9.156;2023-06-22T13:59:49;34.10;99.90
790;DHT22;378;48.844;9.156;2023-06-22T14:02:16;33.90;99.90
790;DHT22;378;48.844;9.156;2023-06-22T14:04:44;33.80;99.90
790;DHT22;378;48.844;9.156;2023-06-22T14:07:11;33.50;99.90
790;DHT22;378;48.844;9.156;2023-06-22T14:09:38;33.20;99.90
790;DHT22;378;48.844;9.156;2023-06-22T14:12:05;33.00;99.90
790;DHT22;378;48.844;9.156;2023-06-22T14:14:33;33.10;99.90
790;DHT22;378;48.844;9.156;2023-06-22T14:17:00;33.20;99.90
790;DHT22;378;48.844;9.156;2023-06-22T14:19:27;33.10;99.90
790;DHT22;378;48.844;9.156;2023-06-22T14:21:55;33.10;99.90
790;DHT22;378;48.844;9.156;2023-06-22T14:24:22;33.50;99.90
790;DHT22;378;48.844;9.156;2023-06-22T14:26:49;34.40;99.90
790;DHT22;378;48.844;9.156;2023-06-22T14:29:16;35.40;99.90
790;DHT22;378;48.844;9.156;2023-06-22T14:31:45;35.70;99.90
790;DHT22;378;48.844;9.156;2023-06-22T14:34:12;35.90;99.90
790;DHT22;378;48.844;9.156;2023-06-22T14:36:39;35.60;99.90
790;DHT22;378;48.844;9.156;2023-06-22T14:39:07;35.50;99.90
790;DHT22;378;48.844;9.156;2023-06-22T14:41:34;35.50;99.90
790;DHT22;378;48.844;9.156;2023-06-22T14:44:01;36.00;99.90
790;DHT22;378;48.844;9.156;2023-06-22T14:46:28;35.50;99.90
790;DHT22;378;48.844;9.156;2023-06-22T14:48:55;35.10;99.90
790;DHT22;378;48.844;9.156;2023-06-22T14:51:22;36.00;99.90
790;DHT22;378;48.844;9.156;2023-06-22T14:53:48;37.80;99.90
790;DHT22;378;48.844;9.156;2023-06-22T14:56:17;38.90;99.10
790;DHT22;378;48.844;9.156;2023-06-22T14:58:44;39.50;98.40
790;DHT22;378;48.844;9.156;2023-06-22T15:01:11;39.70;95.50
790;DHT22;378;48.844;9.156;2023-06-22T15:03:38;39.30;91.40
790;DHT22;378;48.844;9.156;2023-06-22T15:06:05;39.20;90.00
790;DHT22;378;48.844;9.156;2023-06-22T15:08:33;39.30;88.40
790;DHT22;378;48.844;9.156;2023-06-22T15:11:00;39.60;87.60
790;DHT22;378;48.844;9.156;2023-06-22T15:13:30;39.90;85.40
790;DHT22;378;48.844;9.156;2023-06-22T15:15:59;39.60;81.60
790;DHT22;378;48.844;9.156;2023-06-22T15:18:26;39.50;82.50
790;DHT22;378;48.844;9.156;2023-06-22T15:20:53;39.40;82.70
790;DHT22;378;48.844;9.156;2023-06-22T15:23:20;39.70;80.50
790;DHT22;378;48.844;9.156;2023-06-22T15:25:47;38.30;80.90
790;DHT22;378;48.844;9.156;2023-06-22T15:28:14;38.50;81.30
790;DHT22;378;48.844;9.156;2023-06-22T15:30:42;38.70;80.70
790;DHT22;378;48.844;9.156;2023-06-22T15:33:09;38.00;79.60
790;DHT22;378;48.844;9.156;2023-06-22T15:35:36;37.50;80.50
790;DHT22;378;48.844;9.156;2023-06-22T15:38:03;37.80;81.40
790;DHT22;378;48.844;9.156;2023-06-22T15:40:30;38.70;80.60
790;DHT22;378;48.844;9.156;2023-06-22T15:42:57;39.00;80.00
790;DHT22;378;48.844;9.156;2023-06-22T15:45:24;37.40;80.50
790;DHT22;378;48.844;9.156;2023-06-22T15:47:52;36.20;82.00
790;DHT22;378;48.844;9.156;2023-06-22T15:50:19;35.10;83.90
790;DHT22;378;48.844;9.156;2023-06-22T15:52:46;34.40;84.60
790;DHT22;378;48.844;9.156;2023-06-22T15:55:16;33.80;85.40
790;DHT22;378;48.844;9.156;2023-06-22T15:57:43;33.30;86.70
790;DHT22;378;48.844;9.156;2023-06-22T16:00:13;33.00;88.20
790;DHT22;378;48.844;9.156;2023-06-22T16:02:40;33.10;88.90
790;DHT22;378;48.844;9.156;2023-06-22T16:05:08;33.10;90.10
790;DHT22;378;48.844;9.156;2023-06-22T16:07:36;33.30;90.00
790;DHT22;378;48.844;9.156;2023-06-22T16:10:03;32.80;90.40
790;DHT22;378;48.844;9.156;2023-06-22T16:12:30;32.70;90.60
790;DHT22;378;48.844;9.156;2023-06-22T16:14:57;32.40;91.00
790;DHT22;378;48.844;9.156;2023-06-22T16:17:23;32.40;91.50
790;DHT22;378;48.844;9.156;2023-06-22T16:19:52;32.30;91.40
790;DHT22;378;48.844;9.156;2023-06-22T16:22:21;32.00;92.20
790;DHT22;378;48.844;9.156;2023-06-22T16:24:48;31.90;92.10
790;DHT22;378;48.844;9.156;2023-06-22T16:27:15;32.00;92.50
790;DHT22;378;48.844;9.156;2023-06-22T16:29:42;32.00;92.50
790;DHT22;378;48.844;9.156;2023-06-22T16:32:09;31.80;92.90
790;DHT22;378;48.844;9.156;2023-06-22T16:34:36;31.70;93.00
790;DHT22;378;48.844;9.156;2023-06-22T16:37:03;31.70;92.90